createdAt,value
2019-03-22T00:01:20.124Z,5.13
2019-03-22T00:03:47.811Z,4.80
2019-03-22T00:06:15.514Z,4.60
2019-03-22T00:08:43.196Z,4.80
2019-03-22T00:11:11.033Z,5.17
2019-03-22T00:13:38.798Z,5.07
2019-03-22T00:16:06.460Z,5.17
2019-03-22T00:18:34.266Z,4.17
2019-03-22T00:21:02.167Z,5.00
2019-03-22T00:23:29.852Z,4.10
2019-03-22T00:25:57.588Z,4.30
2019-03-22T00:28:25.371Z,4.80
2019-03-22T00:30:53.151Z,4.47
2019-03-22T00:33:20.857Z,4.67
2019-03-22T00:35:48.675Z,4.73
2019-03-22T00:38:16.463Z,5.23
2019-03-22T00:40:44.291Z,4.93
2019-03-22T00:43:12.109Z,4.47
2019-03-22T00:45:39.909Z,4.30
2019-03-22T00:48:07.695Z,4.67
2019-03-22T00:50:35.462Z,4.23
2019-03-22T00:53:03.255Z,5.10
2019-03-22T00:55:30.937Z,4.40
2019-03-22T00:57:58.731Z,4.13
2019-03-22T01:00:26.516Z,4.60
2019-03-22T01:02:54.478Z,4.57
2019-03-22T01:05:22.335Z,4.63
2019-03-22T01:07:50.097Z,4.60
2019-03-22T01:10:17.861Z,3.90
2019-03-22T01:12:45.667Z,3.90
2019-03-22T01:15:13.539Z,4.10
2019-03-22T01:17:41.252Z,3.97
2019-03-22T01:20:09.012Z,3.80
2019-03-22T01:22:36.813Z,4.63
2019-03-22T01:25:05.140Z,4.77
2019-03-22T01:27:40.300Z,4.37
2019-03-22T01:30:02.627Z,3.97
2019-03-22T01:32:30.421Z,3.97
2019-03-22T01:34:58.175Z,3.90
2019-03-22T01:37:25.860Z,3.83
2019-03-22T01:39:53.530Z,4.50
2019-03-22T01:42:21.238Z,3.80
2019-03-22T01:44:49.065Z,3.47
2019-03-22T01:47:16.788Z,3.67
2019-03-22T01:49:44.581Z,3.43
2019-03-22T01:52:12.322Z,3.77
2019-03-22T01:54:42.974Z,3.87
2019-03-22T01:57:10.757Z,3.80
2019-03-22T01:59:38.546Z,4.10
2019-03-22T02:02:06.326Z,3.30
2019-03-22T02:04:34.215Z,4.13
2019-03-22T02:07:02.010Z,4.00
2019-03-22T02:09:29.871Z,3.33
2019-03-22T02:11:57.537Z,3.20
2019-03-22T02:14:25.333Z,3.77
2019-03-22T02:16:53.143Z,3.07
2019-03-22T02:19:20.913Z,2.90
2019-03-22T02:21:48.717Z,3.30
2019-03-22T02:24:16.499Z,3.00
2019-03-22T02:26:44.298Z,4.23
2019-03-22T02:29:12.153Z,3.70
2019-03-22T02:31:39.848Z,3.10
2019-03-22T02:34:07.557Z,3.67
2019-03-22T02:36:35.228Z,3.17
2019-03-22T02:39:04.778Z,3.40
2019-03-22T02:41:32.648Z,3.73
2019-03-22T02:44:00.446Z,4.67
2019-03-22T02:46:28.224Z,3.90
2019-03-22T02:48:56.028Z,3.83
2019-03-22T02:51:23.922Z,4.17
2019-03-22T02:53:51.760Z,4.03
2019-03-22T02:56:19.568Z,4.20
2019-03-22T02:58:47.442Z,3.70
2019-03-22T03:01:15.225Z,4.17
2019-03-22T03:03:43.000Z,4.10
2019-03-22T03:06:10.777Z,4.00
2019-03-22T03:08:38.668Z,4.00
2019-03-22T03:11:06.596Z,3.77
2019-03-22T03:13:34.362Z,3.73
2019-03-22T03:16:02.139Z,3.63
2019-03-22T03:18:29.922Z,3.23
2019-03-22T03:20:57.896Z,4.00
2019-03-22T03:23:25.675Z,3.97
2019-03-22T03:25:53.475Z,3.10
2019-03-22T03:28:35.621Z,3.83
2019-03-22T03:30:51.026Z,3.27
2019-03-22T03:33:18.813Z,3.20
2019-03-22T03:35:46.687Z,3.20
2019-03-22T03:38:14.485Z,3.50
2019-03-22T03:40:42.177Z,3.07
2019-03-22T03:43:09.984Z,3.50
2019-03-22T03:45:37.633Z,3.77
2019-03-22T03:48:06.500Z,3.50
2019-03-22T03:50:34.380Z,3.13
2019-03-22T03:53:02.432Z,3.30
2019-03-22T03:55:30.287Z,3.40
2019-03-22T03:57:58.214Z,3.10
2019-03-22T04:00:26.163Z,3.67
2019-03-22T04:02:53.998Z,3.30
2019-03-22T04:05:21.876Z,3.43
2019-03-22T04:07:49.806Z,3.00
2019-03-22T04:10:17.598Z,3.17
2019-03-22T04:12:45.380Z,3.40
2019-03-22T04:15:13.450Z,3.40
2019-03-22T04:17:41.303Z,3.13
2019-03-22T04:20:09.299Z,3.40
2019-03-22T04:22:37.182Z,3.07
2019-03-22T04:25:05.120Z,3.90
2019-03-22T04:27:32.985Z,3.07
2019-03-22T04:30:00.755Z,4.07
2019-03-22T04:32:28.563Z,3.37
2019-03-22T04:34:56.449Z,3.07
2019-03-22T04:37:24.290Z,3.63
2019-03-22T04:39:52.073Z,3.97
2019-03-22T04:42:19.859Z,3.47
2019-03-22T04:44:47.627Z,3.30
2019-03-22T04:47:17.778Z,3.77
2019-03-22T04:49:47.851Z,3.63
2019-03-22T04:52:16.340Z,3.63
2019-03-22T04:54:47.504Z,4.10
2019-03-22T04:57:16.238Z,3.80
2019-03-22T04:59:46.390Z,3.43
2019-03-22T05:02:14.504Z,3.73
2019-03-22T05:04:43.395Z,3.87
2019-03-22T05:07:11.518Z,3.83
2019-03-22T05:09:39.758Z,3.97
2019-03-22T05:12:09.680Z,3.47
2019-03-22T05:14:40.252Z,3.83
2019-03-22T05:17:09.127Z,3.87
2019-03-22T05:19:39.976Z,3.83
2019-03-22T05:22:10.426Z,3.33
2019-03-22T05:24:40.634Z,3.23
2019-03-22T05:27:09.308Z,3.73
2019-03-22T05:29:39.030Z,3.40
2019-03-22T05:32:14.859Z,3.63
2019-03-22T05:34:42.646Z,3.70
2019-03-22T05:37:10.446Z,3.30
2019-03-22T05:39:38.242Z,3.47
2019-03-22T05:42:06.056Z,3.73
2019-03-22T05:44:33.754Z,3.73
2019-03-22T05:47:01.611Z,3.73
2019-03-22T05:49:29.411Z,3.43
2019-03-22T05:51:57.108Z,3.90
2019-03-22T05:54:24.978Z,4.13
2019-03-22T05:56:52.756Z,3.90
2019-03-22T05:59:20.428Z,4.10
2019-03-22T06:01:48.296Z,3.53
2019-03-22T06:04:16.048Z,3.67
2019-03-22T06:06:43.889Z,4.00
2019-03-22T06:09:11.553Z,4.23
2019-03-22T06:11:39.307Z,4.70
2019-03-22T06:14:06.998Z,5.37
2019-03-22T06:16:34.675Z,4.70
2019-03-22T06:19:02.400Z,4.80
2019-03-22T06:21:30.108Z,4.67
2019-03-22T06:23:57.981Z,5.40
2019-03-22T06:26:25.656Z,4.90
2019-03-22T06:28:53.486Z,5.50
2019-03-22T06:31:21.161Z,5.20
2019-03-22T06:33:48.930Z,5.80
2019-03-22T06:36:16.609Z,5.87
2019-03-22T06:38:44.174Z,6.03
2019-03-22T06:41:11.954Z,5.80
2019-03-22T06:43:39.832Z,5.77
2019-03-22T06:46:07.640Z,5.87
2019-03-22T06:48:35.436Z,5.97
2019-03-22T06:51:03.150Z,5.73
2019-03-22T06:53:30.890Z,6.00
2019-03-22T06:55:58.685Z,5.80
2019-03-22T06:58:26.542Z,6.53
2019-03-22T07:00:54.425Z,6.13
2019-03-22T07:03:22.230Z,5.93
2019-03-22T07:05:50.025Z,5.87
2019-03-22T07:08:17.675Z,6.30
2019-03-22T07:10:45.440Z,5.70
2019-03-22T07:13:13.269Z,5.30
2019-03-22T07:15:41.177Z,5.45
2019-03-22T07:18:09.025Z,5.33
2019-03-22T07:20:36.670Z,5.10
2019-03-22T07:23:04.449Z,4.25
2019-03-22T07:25:32.135Z,4.67
2019-03-22T07:27:59.819Z,4.72
2019-03-22T07:30:27.496Z,5.25
2019-03-22T07:32:55.271Z,4.40
2019-03-22T07:35:23.038Z,4.00
2019-03-22T07:37:50.845Z,4.05
2019-03-22T07:40:18.666Z,3.72
2019-03-22T07:42:46.467Z,3.80
2019-03-22T07:45:14.295Z,3.70
2019-03-22T07:47:41.970Z,3.33
2019-03-22T07:50:11.145Z,3.58
2019-03-22T07:52:38.845Z,3.33
2019-03-22T07:55:06.666Z,2.85
2019-03-22T07:57:34.434Z,3.05
2019-03-22T08:00:02.515Z,2.80
2019-03-22T08:02:30.319Z,3.05
2019-03-22T08:04:58.125Z,3.00
2019-03-22T08:07:25.741Z,2.98
2019-03-22T08:09:53.565Z,3.27
2019-03-22T08:12:21.256Z,3.17
2019-03-22T08:14:49.163Z,3.02
2019-03-22T08:17:17.023Z,3.10
2019-03-22T08:19:44.713Z,3.10
2019-03-22T08:22:12.602Z,2.62
2019-03-22T08:24:40.501Z,2.70
2019-03-22T08:27:08.403Z,2.52
2019-03-22T08:32:10.686Z,2.47
2019-03-22T08:34:38.616Z,2.30
2019-03-22T08:37:06.506Z,2.42
2019-03-22T08:39:34.304Z,2.40
2019-03-22T08:42:02.149Z,2.22
2019-03-22T08:44:30.074Z,2.20
2019-03-22T08:46:57.945Z,2.12
2019-03-22T08:49:25.997Z,1.90
2019-03-22T08:51:53.960Z,1.90
2019-03-22T08:54:21.695Z,1.75
2019-03-22T08:56:49.538Z,1.98
2019-03-22T08:59:17.412Z,2.02
2019-03-22T09:01:45.291Z,1.90
2019-03-22T09:04:13.214Z,1.85
2019-03-22T09:06:40.998Z,1.90
2019-03-22T09:09:08.771Z,2.05
2019-03-22T09:11:36.690Z,1.82
2019-03-22T09:14:04.389Z,1.80
2019-03-22T09:16:32.162Z,1.92
2019-03-22T09:19:00.100Z,1.70
2019-03-22T09:21:27.848Z,1.90
2019-03-22T09:23:55.501Z,1.85
2019-03-22T09:26:23.331Z,1.65
2019-03-22T09:28:51.083Z,1.82
2019-03-22T09:31:18.913Z,1.70
2019-03-22T09:33:47.551Z,1.60
2019-03-22T09:36:15.404Z,1.82
2019-03-22T09:38:43.140Z,1.70
2019-03-22T09:41:10.927Z,1.90
2019-03-22T09:43:38.830Z,2.02
2019-03-22T09:46:06.703Z,1.62
2019-03-22T09:48:34.689Z,2.00
2019-03-22T09:51:02.405Z,1.92
2019-03-22T09:53:30.587Z,1.90
2019-03-22T09:55:58.413Z,1.77
2019-03-22T09:58:26.358Z,1.87
2019-03-22T10:00:54.225Z,1.72
2019-03-22T10:03:22.040Z,1.80
2019-03-22T10:05:49.912Z,2.12
2019-03-22T10:08:17.803Z,2.20
2019-03-22T10:10:45.772Z,2.20
2019-03-22T10:13:13.671Z,2.50
2019-03-22T10:15:41.458Z,2.17
2019-03-22T10:18:09.516Z,2.35
2019-03-22T10:20:37.467Z,2.30
2019-03-22T10:23:05.397Z,2.40
2019-03-22T10:25:33.277Z,2.10
2019-03-22T10:28:01.092Z,2.15
2019-03-22T10:30:28.720Z,2.20
2019-03-22T10:32:56.403Z,2.30
2019-03-22T10:35:26.317Z,1.92
2019-03-22T10:38:00.397Z,2.27
2019-03-22T10:40:23.595Z,2.20
2019-03-22T10:42:51.434Z,2.10
2019-03-22T10:45:19.341Z,2.00
2019-03-22T10:47:47.038Z,2.42
2019-03-22T10:55:29.760Z,2.12
2019-03-22T10:57:55.438Z,2.70
2019-03-22T11:00:23.405Z,2.37
2019-03-22T11:02:51.111Z,2.22
2019-03-22T11:05:18.928Z,2.20
2019-03-22T11:07:46.794Z,2.50
2019-03-22T11:10:14.644Z,2.25
2019-03-22T11:12:42.444Z,2.20
2019-03-22T11:15:11.004Z,2.10
2019-03-22T11:17:38.737Z,2.12
2019-03-22T11:20:08.582Z,2.27
2019-03-22T11:22:36.474Z,2.58
2019-03-22T11:25:05.183Z,2.95
2019-03-22T11:27:33.026Z,2.40
2019-03-22T11:30:00.809Z,2.17
2019-03-22T11:32:28.635Z,2.60
2019-03-22T11:34:56.405Z,2.30
2019-03-22T11:37:24.181Z,2.55
2019-03-22T11:39:51.899Z,2.58
2019-03-22T11:42:19.798Z,3.12
2019-03-22T11:44:47.681Z,3.22
2019-03-22T11:47:15.498Z,3.62
2019-03-22T11:49:43.324Z,3.67
2019-03-22T11:52:11.078Z,3.30
2019-03-22T11:54:39.094Z,3.70
2019-03-22T11:57:07.116Z,3.87
2019-03-22T11:59:34.948Z,4.00
2019-03-22T12:02:02.885Z,4.33
2019-03-22T12:04:30.559Z,3.90
2019-03-22T12:06:58.363Z,4.22
2019-03-22T12:09:26.130Z,3.90
2019-03-22T12:11:53.990Z,4.22
2019-03-22T12:14:21.743Z,4.12
2019-03-22T12:16:49.567Z,4.50
2019-03-22T12:19:17.357Z,4.55
2019-03-22T12:21:45.151Z,11.93
2019-03-22T12:24:12.929Z,6.10
2019-03-22T12:26:40.767Z,5.20
2019-03-22T12:29:08.584Z,4.80
2019-03-22T12:31:36.328Z,4.40
2019-03-22T12:34:04.421Z,4.03
2019-03-22T12:36:32.183Z,4.37
2019-03-22T12:39:00.130Z,3.52
2019-03-22T12:41:27.976Z,3.77
2019-03-22T12:43:55.867Z,3.45
2019-03-22T12:46:23.743Z,3.45
2019-03-22T12:48:51.559Z,3.27
2019-03-22T12:51:19.435Z,4.05
2019-03-22T12:53:47.277Z,3.92
2019-03-22T12:56:15.121Z,3.87
2019-03-22T12:58:42.770Z,4.00
2019-03-22T13:01:10.563Z,3.87
2019-03-22T13:03:38.365Z,3.72
2019-03-22T13:06:06.233Z,4.08
2019-03-22T13:08:34.035Z,4.05
2019-03-22T13:11:01.863Z,4.40
2019-03-22T13:13:29.673Z,4.75
2019-03-22T13:15:57.447Z,4.33
2019-03-22T13:18:25.237Z,4.53
2019-03-22T13:20:52.944Z,4.30
2019-03-22T13:23:20.616Z,3.90
2019-03-22T13:25:48.543Z,4.25
2019-03-22T13:28:16.205Z,4.22
2019-03-22T13:30:43.977Z,4.78
2019-03-22T13:33:11.750Z,4.22
2019-03-22T13:35:39.582Z,4.45
2019-03-22T13:38:07.414Z,4.62
2019-03-22T13:40:35.160Z,4.17
2019-03-22T13:43:02.816Z,4.20
2019-03-22T13:45:30.620Z,5.15
2019-03-22T13:47:58.306Z,4.65
2019-03-22T13:50:26.166Z,4.58
2019-03-22T13:52:53.926Z,4.80
2019-03-22T13:55:21.583Z,4.50
2019-03-22T13:57:53.312Z,5.00
2019-03-22T14:00:21.101Z,5.22
2019-03-22T14:02:48.974Z,4.78
2019-03-22T14:05:16.730Z,5.05
2019-03-22T14:07:44.432Z,5.05
2019-03-22T14:10:23.637Z,4.87
2019-03-22T14:12:51.508Z,4.78
2019-03-22T14:15:19.217Z,5.10
2019-03-22T14:17:47.102Z,5.15
2019-03-22T14:20:14.914Z,5.12
2019-03-22T14:22:42.601Z,5.22
2019-03-22T14:25:10.416Z,5.60
2019-03-22T14:27:38.317Z,5.15
2019-03-22T14:30:06.513Z,5.12
2019-03-22T14:32:34.367Z,5.12
2019-03-22T14:35:02.284Z,5.80
2019-03-22T14:37:30.106Z,4.72
2019-03-22T14:39:57.956Z,5.12
2019-03-22T14:42:25.613Z,5.28
2019-03-22T14:44:53.386Z,5.37
2019-03-22T14:47:21.360Z,5.55
2019-03-22T14:49:49.045Z,5.58
2019-03-22T14:52:16.838Z,5.28
2019-03-22T14:54:44.520Z,5.40
2019-03-22T14:57:12.391Z,5.62
2019-03-22T14:59:40.192Z,6.25
2019-03-22T15:02:08.033Z,5.70
2019-03-22T15:04:35.881Z,5.87
2019-03-22T15:07:19.443Z,5.65
2019-03-22T15:09:46.353Z,5.92
2019-03-22T15:12:14.344Z,5.60
2019-03-22T15:15:12.649Z,5.22
2019-03-22T15:17:53.999Z,5.75
2019-03-22T15:20:52.628Z,6.25
2019-03-22T15:24:03.108Z,5.78
2019-03-22T15:26:42.014Z,6.08
2019-03-22T15:29:31.921Z,5.33
2019-03-22T15:32:25.041Z,5.90
2019-03-22T15:35:12.573Z,5.50
2019-03-22T15:38:14.999Z,6.20
2019-03-22T15:40:42.776Z,5.78
2019-03-22T15:43:10.528Z,6.05
2019-03-22T15:45:38.369Z,6.85
2019-03-22T15:48:06.223Z,6.33
2019-03-22T15:50:33.971Z,6.75
2019-03-22T15:53:01.790Z,6.40
2019-03-22T15:55:29.689Z,7.03
2019-03-22T15:57:57.605Z,7.05
2019-03-22T16:00:25.396Z,6.25
2019-03-22T16:02:53.155Z,6.70
2019-03-22T16:05:20.994Z,7.28
2019-03-22T16:07:48.903Z,7.22
2019-03-22T16:10:16.671Z,7.03
2019-03-22T16:12:45.095Z,7.28
2019-03-22T16:15:13.205Z,7.40
2019-03-22T16:17:41.112Z,7.30
2019-03-22T16:20:09.463Z,7.08
2019-03-22T16:22:45.454Z,7.53
2019-03-22T16:25:23.343Z,6.72
2019-03-22T16:27:51.388Z,7.65
2019-03-22T16:30:19.161Z,6.75
2019-03-22T16:32:47.002Z,7.20
2019-03-22T16:35:14.826Z,7.45
2019-03-22T16:37:42.760Z,6.67
2019-03-22T16:40:10.861Z,7.03
2019-03-22T16:42:39.539Z,7.00
2019-03-22T16:45:07.982Z,6.67
2019-03-22T16:47:36.097Z,7.08
2019-03-22T16:50:06.172Z,7.35
2019-03-22T16:52:33.996Z,7.63
2019-03-22T16:55:01.800Z,8.45
2019-03-22T16:57:29.576Z,7.87
2019-03-22T16:59:57.323Z,8.08
2019-03-22T17:02:25.135Z,7.60
2019-03-22T17:04:52.969Z,8.30
2019-03-22T17:07:20.752Z,7.60
2019-03-22T17:09:48.372Z,7.33
2019-03-22T17:12:16.403Z,7.53
2019-03-22T17:14:44.283Z,7.77
2019-03-22T17:17:12.114Z,8.07
2019-03-22T17:19:39.987Z,7.30
2019-03-22T17:22:07.823Z,7.97
2019-03-22T17:24:35.616Z,7.57
2019-03-22T17:27:03.453Z,8.30
2019-03-22T17:29:31.369Z,8.73
2019-03-22T17:31:59.125Z,8.30
2019-03-22T17:34:27.004Z,8.40
2019-03-22T17:36:54.756Z,7.53
2019-03-22T17:39:22.561Z,7.33
2019-03-22T17:41:50.400Z,7.17
2019-03-22T17:44:18.277Z,7.83
2019-03-22T17:46:46.139Z,7.10
2019-03-22T17:49:13.966Z,7.80
2019-03-22T17:51:41.748Z,7.90
2019-03-22T17:54:09.531Z,8.30
2019-03-22T17:56:37.198Z,7.40
2019-03-22T17:59:04.893Z,7.70
2019-03-22T18:01:32.754Z,8.13
2019-03-22T18:04:00.479Z,8.30
2019-03-22T18:06:28.303Z,9.77
2019-03-22T18:08:56.105Z,10.47
2019-03-22T18:11:23.775Z,9.47
2019-03-22T18:13:51.566Z,9.60
2019-03-22T18:16:19.368Z,17.47
2019-03-22T18:18:47.059Z,10.57
2019-03-22T18:21:14.846Z,10.37
2019-03-22T18:23:42.623Z,10.20
2019-03-22T18:26:10.378Z,8.97
2019-03-22T18:28:38.210Z,8.57
2019-03-22T18:31:06.006Z,8.70
2019-03-22T18:33:33.913Z,8.20
2019-03-22T18:36:01.674Z,9.33
2019-03-22T18:38:29.472Z,15.97
2019-03-22T18:40:57.289Z,9.50
2019-03-22T18:43:25.059Z,9.00
2019-03-22T18:45:52.965Z,7.87
2019-03-22T18:48:20.824Z,8.63
2019-03-22T18:50:56.368Z,7.47
2019-03-22T18:53:21.016Z,7.67
2019-03-22T18:55:48.845Z,7.83
2019-03-22T18:58:16.616Z,7.50
2019-03-22T19:00:44.317Z,7.60
2019-03-22T19:03:12.192Z,8.40
2019-03-22T19:05:40.108Z,8.83
2019-03-22T19:08:07.895Z,8.33
2019-03-22T19:10:35.576Z,7.97
2019-03-22T19:13:03.440Z,21.97
2019-03-22T19:15:31.249Z,11.80
2019-03-22T19:17:58.933Z,10.70
2019-03-22T19:20:26.762Z,10.00
2019-03-22T19:22:54.554Z,10.03
2019-03-22T19:25:22.227Z,10.50
2019-03-22T19:28:01.968Z,9.47
2019-03-22T19:30:37.823Z,9.70
2019-03-22T19:36:17.969Z,9.77
2019-03-22T19:38:48.874Z,10.90
2019-03-22T19:41:16.546Z,11.33
2019-03-22T19:43:44.336Z,11.13
2019-03-22T19:46:12.215Z,9.80
2019-03-22T19:48:40.022Z,9.67
2019-03-22T19:51:07.856Z,9.10
2019-03-22T19:53:35.521Z,8.83
2019-03-22T19:56:03.842Z,8.80
2019-03-22T19:58:31.516Z,8.30
2019-03-22T20:00:59.468Z,8.97
2019-03-22T20:03:27.275Z,7.60
2019-03-22T20:05:55.114Z,8.30
2019-03-22T20:08:22.826Z,8.57
2019-03-22T20:10:50.651Z,9.07
2019-03-22T20:13:18.443Z,8.90
2019-03-22T20:15:46.110Z,9.10
2019-03-22T20:18:13.912Z,9.00
2019-03-22T20:20:41.686Z,9.27
2019-03-22T20:23:17.942Z,8.80
2019-03-22T20:25:45.873Z,8.83
2019-03-22T20:28:13.679Z,8.03
2019-03-22T20:30:42.047Z,10.60
2019-03-22T20:33:09.737Z,8.33
2019-03-22T20:35:37.728Z,8.57
2019-03-22T20:38:05.542Z,8.33
2019-03-22T20:40:33.227Z,8.00
2019-03-22T20:43:01.137Z,9.63
2019-03-22T20:45:28.963Z,8.93
2019-03-22T20:47:56.748Z,9.00
2019-03-22T20:50:35.118Z,9.03
2019-03-22T20:52:54.306Z,8.57
2019-03-22T20:55:22.073Z,8.53
2019-03-22T20:57:49.937Z,9.37
2019-03-22T21:00:17.805Z,8.80
2019-03-22T21:02:45.471Z,8.57
2019-03-22T21:05:13.474Z,9.93
2019-03-22T21:07:41.505Z,8.57
2019-03-22T21:10:09.837Z,9.03
2019-03-22T21:12:37.743Z,8.10
2019-03-22T21:15:05.730Z,9.40
2019-03-22T21:17:33.756Z,29.30
2019-03-22T21:20:01.535Z,18.20
2019-03-22T21:22:29.377Z,16.23
2019-03-22T21:24:57.238Z,13.27
2019-03-22T21:27:25.110Z,11.30
2019-03-22T21:29:53.018Z,10.33
2019-03-22T21:32:20.828Z,11.00
2019-03-22T21:34:48.619Z,9.40
2019-03-22T21:37:16.512Z,10.13
2019-03-22T21:39:44.304Z,9.40
2019-03-22T21:42:12.122Z,21.77
2019-03-22T21:44:39.925Z,19.40
2019-03-22T21:47:07.746Z,12.80
2019-03-22T21:49:35.544Z,9.87
2019-03-22T21:52:03.387Z,10.00
2019-03-22T21:54:31.119Z,9.90
2019-03-22T21:56:58.961Z,9.67
2019-03-22T21:59:26.667Z,11.03
2019-03-22T22:01:54.467Z,10.27
2019-03-22T22:04:22.290Z,10.03
2019-03-22T22:06:50.091Z,9.87
2019-03-22T22:09:17.908Z,9.00
2019-03-22T22:11:45.624Z,8.70
2019-03-22T22:14:13.443Z,8.87
2019-03-22T22:16:41.263Z,8.70
2019-03-22T22:19:09.045Z,8.27
2019-03-22T22:21:36.881Z,8.90
2019-03-22T22:24:04.597Z,7.93
2019-03-22T22:26:32.355Z,8.30
2019-03-22T22:29:00.116Z,8.60
2019-03-22T22:31:27.861Z,9.47
2019-03-22T22:33:55.645Z,8.53
2019-03-22T22:36:23.434Z,8.60
2019-03-22T22:38:51.242Z,8.57
2019-03-22T22:41:19.122Z,8.70
2019-03-22T22:43:46.816Z,8.70
2019-03-22T22:46:14.600Z,8.47
2019-03-22T22:48:42.393Z,8.27
2019-03-22T22:51:10.070Z,8.30
2019-03-22T22:53:37.850Z,8.77
2019-03-22T22:56:05.574Z,8.63
2019-03-22T22:58:33.425Z,8.03
2019-03-22T23:01:01.457Z,9.37
2019-03-22T23:03:29.245Z,8.60
2019-03-22T23:05:57.057Z,8.17
2019-03-22T23:08:24.818Z,7.57
2019-03-22T23:10:52.607Z,7.10
2019-03-22T23:13:20.354Z,7.53
2019-03-22T23:15:48.156Z,7.93
2019-03-22T23:18:15.828Z,7.53
2019-03-22T23:20:43.633Z,8.10
2019-03-22T23:23:11.400Z,8.13
2019-03-22T23:25:39.188Z,8.00
2019-03-22T23:28:06.958Z,7.80
2019-03-22T23:30:34.862Z,7.83
2019-03-22T23:33:02.646Z,7.53
2019-03-22T23:35:30.446Z,7.63
2019-03-22T23:37:58.198Z,8.07
2019-03-22T23:40:26.011Z,7.40
2019-03-22T23:42:53.870Z,7.63
2019-03-22T23:45:21.673Z,7.87
2019-03-22T23:47:49.462Z,7.40
2019-03-22T23:50:17.283Z,7.80
2019-03-22T23:52:45.058Z,7.13
2019-03-22T23:55:12.869Z,7.00
2019-03-22T23:57:40.625Z,7.53
